sensor_id;sensor_type;location;lat;lon;timestamp;temperature;humidity
25918;DHT22;13899;51.174;4.456;2022-11-04T00:01:45;9.80;99.90
25918;DHT22;13899;51.174;4.456;2022-11-04T00:04:12;9.80;99.90
25918;DHT22;13899;51.174;4.456;2022-11-04T00:06:38;9.70;99.90
25918;DHT22;13899;51.174;4.456;2022-11-04T00:09:06;9.70;99.90
25918;DHT22;13899;51.174;4.456;2022-11-04T00:11:32;9.70;99.90
25918;DHT22;13899;51.174;4.456;2022-11-04T00:14:17;9.70;99.90
25918;DHT22;13899;51.174;4.456;2022-11-04T00:16:43;9.60;99.90
25918;DHT22;13899;51.174;4.456;2022-11-04T00:19:28;9.70;99.90
25918;DHT22;13899;51.174;4.456;2022-11-04T00:22:13;9.60;99.90
25918;DHT22;13899;51.174;4.456;2022-11-04T00:24:58;9.60;99.90
25918;DHT22;13899;51.174;4.456;2022-11-04T00:27:42;9.50;99.90
25918;DHT22;13899;51.174;4.456;2022-11-04T00:30:26;9.50;99.90
25918;DHT22;13899;51.174;4.456;2022-11-04T00:32:51;9.50;99.90
25918;DHT22;13899;51.174;4.456;2022-11-04T00:35:48;9.40;99.90
25918;DHT22;13899;51.174;4.456;2022-11-04T00:38:14;9.40;99.90
25918;DHT22;13899;51.174;4.456;2022-11-04T00:40:41;9.40;99.90
25918;DHT22;13899;51.174;4.456;2022-11-04T00:43:06;9.40;99.90
25918;DHT22;13899;51.174;4.456;2022-11-04T00:45:32;9.40;99.90
25918;DHT22;13899;51.174;4.456;2022-11-04T00:47:57;9.30;99.90
25918;DHT22;13899;51.174;4.456;2022-11-04T00:50:23;9.30;99.90
25918;DHT22;13899;51.174;4.456;2022-11-04T00:52:48;9.40;99.90
25918;DHT22;13899;51.174;4.456;2022-11-04T00:55:14;9.30;99.90
25918;DHT22;13899;51.174;4.456;2022-11-04T00:57:40;9.30;99.90
25918;DHT22;13899;51.174;4.456;2022-11-04T01:00:06;9.20;99.90
25918;DHT22;13899;51.174;4.456;2022-11-04T01:02:31;9.20;99.90
25918;DHT22;13899;51.174;4.456;2022-11-04T01:04:57;9.20;99.90
25918;DHT22;13899;51.174;4.456;2022-11-04T01:07:23;9.20;99.90
25918;DHT22;13899;51.174;4.456;2022-11-04T01:09:48;9.20;99.90
25918;DHT22;13899;51.174;4.456;2022-11-04T01:12:14;9.10;99.90
25918;DHT22;13899;51.174;4.456;2022-11-04T01:14:41;9.10;99.90
25918;DHT22;13899;51.174;4.456;2022-11-04T01:17:07;9.10;99.90
25918;DHT22;13899;51.174;4.456;2022-11-04T01:19:33;9.30;99.90
25918;DHT22;13899;51.174;4.456;2022-11-04T01:21:58;9.20;99.90
25918;DHT22;13899;51.174;4.456;2022-11-04T01:24:24;9.20;99.90
25918;DHT22;13899;51.174;4.456;2022-11-04T01:26:50;9.20;99.90
25918;DHT22;13899;51.174;4.456;2022-11-04T01:29:15;9.30;99.90
25918;DHT22;13899;51.174;4.456;2022-11-04T01:31:41;9.30;99.90
25918;DHT22;13899;51.174;4.456;2022-11-04T01:34:08;9.30;99.90
25918;DHT22;13899;51.174;4.456;2022-11-04T01:36:33;9.30;99.90
25918;DHT22;13899;51.174;4.456;2022-11-04T01:38:59;9.30;99.90
25918;DHT22;13899;51.174;4.456;2022-11-04T01:41:32;9.30;99.90
25918;DHT22;13899;51.174;4.456;2022-11-04T01:43:59;9.30;99.90
25918;DHT22;13899;51.174;4.456;2022-11-04T01:46:47;9.30;99.90
25918;DHT22;13899;51.174;4.456;2022-11-04T01:49:30;9.30;99.90
25918;DHT22;13899;51.174;4.456;2022-11-04T01:52:21;9.30;99.90
25918;DHT22;13899;51.174;4.456;2022-11-04T01:54:49;9.30;99.90
25918;DHT22;13899;51.174;4.456;2022-11-04T01:57:19;9.30;99.90
25918;DHT22;13899;51.174;4.456;2022-11-04T01:59:47;9.40;99.90
25918;DHT22;13899;51.174;4.456;2022-11-04T02:02:13;9.40;99.90
25918;DHT22;13899;51.174;4.456;2022-11-04T02:04:39;9.40;99.90
25918;DHT22;13899;51.174;4.456;2022-11-04T02:07:08;9.40;99.90
25918;DHT22;13899;51.174;4.456;2022-11-04T02:09:35;9.50;99.90
25918;DHT22;13899;51.174;4.456;2022-11-04T02:12:02;9.50;99.90
25918;DHT22;13899;51.174;4.456;2022-11-04T02:14:48;9.50;99.90
25918;DHT22;13899;51.174;4.456;2022-11-04T02:25:48;9.50;99.90
25918;DHT22;13899;51.174;4.456;2022-11-04T02:29:21;9.50;99.90
25918;DHT22;13899;51.174;4.456;2022-11-04T02:31:28;9.50;99.90
25918;DHT22;13899;51.174;4.456;2022-11-04T02:34:10;9.60;99.90
25918;DHT22;13899;51.174;4.456;2022-11-04T02:36:47;9.60;99.90
25918;DHT22;13899;51.174;4.456;2022-11-04T02:42:28;9.60;99.90
25918;DHT22;13899;51.174;4.456;2022-11-04T02:47:29;9.60;99.90
25918;DHT22;13899;51.174;4.456;2022-11-04T02:50:21;9.60;99.90
25918;DHT22;13899;51.174;4.456;2022-11-04T02:52:56;9.60;99.90
25918;DHT22;13899;51.174;4.456;2022-11-04T02:55:32;9.60;99.90
25918;DHT22;13899;51.174;4.456;2022-11-04T02:58:03;9.70;99.90
25918;DHT22;13899;51.174;4.456;2022-11-04T03:00:30;9.70;99.90
25918;DHT22;13899;51.174;4.456;2022-11-04T03:03:08;9.70;99.90
25918;DHT22;13899;51.174;4.456;2022-11-04T03:05:38;9.70;99.90
25918;DHT22;13899;51.174;4.456;2022-11-04T03:08:16;9.70;99.90
25918;DHT22;13899;51.174;4.456;2022-11-04T03:10:46;9.70;99.90
25918;DHT22;13899;51.174;4.456;2022-11-04T03:13:19;9.70;99.90
25918;DHT22;13899;51.174;4.456;2022-11-04T03:15:58;9.80;99.90
25918;DHT22;13899;51.174;4.456;2022-11-04T03:18:42;9.80;99.90
25918;DHT22;13899;51.174;4.456;2022-11-04T03:21:13;9.80;99.90
25918;DHT22;13899;51.174;4.456;2022-11-04T03:23:40;9.80;99.90
25918;DHT22;13899;51.174;4.456;2022-11-04T03:32:07;9.80;99.90
25918;DHT22;13899;51.174;4.456;2022-11-04T03:34:38;9.80;99.90
25918;DHT22;13899;51.174;4.456;2022-11-04T03:37:04;9.80;99.90
25918;DHT22;13899;51.174;4.456;2022-11-04T03:39:30;9.80;99.90
25918;DHT22;13899;51.174;4.456;2022-11-04T03:41:59;9.80;99.90
25918;DHT22;13899;51.174;4.456;2022-11-04T03:44:26;9.80;99.90
25918;DHT22;13899;51.174;4.456;2022-11-04T03:46:53;9.80;99.90
25918;DHT22;13899;51.174;4.456;2022-11-04T03:49:22;9.70;99.90
25918;DHT22;13899;51.174;4.456;2022-11-04T03:51:50;9.70;99.90
25918;DHT22;13899;51.174;4.456;2022-11-04T03:54:17;9.70;99.90
25918;DHT22;13899;51.174;4.456;2022-11-04T03:57:36;9.70;99.90
25918;DHT22;13899;51.174;4.456;2022-11-04T04:00:04;9.80;99.90
25918;DHT22;13899;51.174;4.456;2022-11-04T04:05:29;9.70;99.90
25918;DHT22;13899;51.174;4.456;2022-11-04T04:16:41;9.70;99.90
25918;DHT22;13899;51.174;4.456;2022-11-04T04:19:14;9.70;99.90
25918;DHT22;13899;51.174;4.456;2022-11-04T04:21:48;9.70;99.90
25918;DHT22;13899;51.174;4.456;2022-11-04T04:24:20;9.70;99.90
25918;DHT22;13899;51.174;4.456;2022-11-04T04:27:06;9.80;99.90
25918;DHT22;13899;51.174;4.456;2022-11-04T04:29:51;9.80;99.90
25918;DHT22;13899;51.174;4.456;2022-11-04T04:32:20;9.90;99.90
25918;DHT22;13899;51.174;4.456;2022-11-04T04:34:47;9.90;99.90
25918;DHT22;13899;51.174;4.456;2022-11-04T04:37:21;10.20;99.90
25918;DHT22;13899;51.174;4.456;2022-11-04T04:39:51;10.30;99.90
25918;DHT22;13899;51.174;4.456;2022-11-04T04:42:36;10.30;99.90
25918;DHT22;13899;51.174;4.456;2022-11-04T04:45:30;10.50;99.90
25918;DHT22;13899;51.174;4.456;2022-11-04T04:47:56;10.50;99.90
25918;DHT22;13899;51.174;4.456;2022-11-04T04:50:26;10.60;99.90
25918;DHT22;13899;51.174;4.456;2022-11-04T04:52:53;10.80;99.90
25918;DHT22;13899;51.174;4.456;2022-11-04T04:55:21;11.00;99.90
25918;DHT22;13899;51.174;4.456;2022-11-04T04:57:47;11.10;99.90
25918;DHT22;13899;51.174;4.456;2022-11-04T05:00:15;10.90;99.90
25918;DHT22;13899;51.174;4.456;2022-11-04T05:02:42;10.90;99.90
25918;DHT22;13899;51.174;4.456;2022-11-04T05:05:10;11.10;99.90
25918;DHT22;13899;51.174;4.456;2022-11-04T05:07:36;11.20;99.90
25918;DHT22;13899;51.174;4.456;2022-11-04T05:10:02;11.40;99.90
25918;DHT22;13899;51.174;4.456;2022-11-04T05:12:31;11.50;99.90
25918;DHT22;13899;51.174;4.456;2022-11-04T05:15:17;11.50;99.90
25918;DHT22;13899;51.174;4.456;2022-11-04T05:17:42;11.60;99.90
25918;DHT22;13899;51.174;4.456;2022-11-04T05:20:08;11.60;99.90
25918;DHT22;13899;51.174;4.456;2022-11-04T05:22:34;11.50;99.90
25918;DHT22;13899;51.174;4.456;2022-11-04T05:25:00;11.50;99.90
25918;DHT22;13899;51.174;4.456;2022-11-04T05:27:25;11.60;99.90
25918;DHT22;13899;51.174;4.456;2022-11-04T05:29:51;11.70;99.90
25918;DHT22;13899;51.174;4.456;2022-11-04T05:32:16;11.60;99.90
25918;DHT22;13899;51.174;4.456;2022-11-04T05:34:42;11.40;99.90
25918;DHT22;13899;51.174;4.456;2022-11-04T05:37:07;11.20;99.90
25918;DHT22;13899;51.174;4.456;2022-11-04T05:39:33;11.00;99.90
25918;DHT22;13899;51.174;4.456;2022-11-04T05:41:59;10.90;99.90
25918;DHT22;13899;51.174;4.456;2022-11-04T05:44:25;10.60;99.90
25918;DHT22;13899;51.174;4.456;2022-11-04T05:46:51;10.70;99.90
25918;DHT22;13899;51.174;4.456;2022-11-04T05:49:16;11.00;99.90
25918;DHT22;13899;51.174;4.456;2022-11-04T05:51:42;11.10;99.90
25918;DHT22;13899;51.174;4.456;2022-11-04T05:54:08;11.30;99.90
25918;DHT22;13899;51.174;4.456;2022-11-04T05:56:34;11.30;99.90
25918;DHT22;13899;51.174;4.456;2022-11-04T05:59:00;11.50;99.90
25918;DHT22;13899;51.174;4.456;2022-11-04T06:01:32;11.30;99.90
25918;DHT22;13899;51.174;4.456;2022-11-04T06:03:59;11.20;99.90
25918;DHT22;13899;51.174;4.456;2022-11-04T06:06:28;11.00;99.90
25918;DHT22;13899;51.174;4.456;2022-11-04T06:08:54;11.00;99.90
25918;DHT22;13899;51.174;4.456;2022-11-04T06:11:21;11.10;99.90
25918;DHT22;13899;51.174;4.456;2022-11-04T06:13:47;11.40;99.90
25918;DHT22;13899;51.174;4.456;2022-11-04T06:16:13;11.60;99.90
25918;DHT22;13899;51.174;4.456;2022-11-04T06:18:38;11.20;99.90
25918;DHT22;13899;51.174;4.456;2022-11-04T06:23:41;11.50;99.90
25918;DHT22;13899;51.174;4.456;2022-11-04T06:26:07;11.60;99.90
25918;DHT22;13899;51.174;4.456;2022-11-04T06:28:32;11.70;99.90
25918;DHT22;13899;51.174;4.456;2022-11-04T06:31:00;11.60;99.90
25918;DHT22;13899;51.174;4.456;2022-11-04T06:33:26;11.70;99.90
25918;DHT22;13899;51.174;4.456;2022-11-04T06:35:51;11.90;99.90
25918;DHT22;13899;51.174;4.456;2022-11-04T06:38:22;11.90;99.90
25918;DHT22;13899;51.174;4.456;2022-11-04T06:40:47;11.90;99.90
25918;DHT22;13899;51.174;4.456;2022-11-04T06:43:13;11.90;99.90
25918;DHT22;13899;51.174;4.456;2022-11-04T06:45:38;11.90;99.90
25918;DHT22;13899;51.174;4.456;2022-11-04T06:48:04;12.00;99.90
25918;DHT22;13899;51.174;4.456;2022-11-04T06:50:30;12.00;99.90
25918;DHT22;13899;51.174;4.456;2022-11-04T06:52:55;11.90;99.90
25918;DHT22;13899;51.174;4.456;2022-11-04T06:55:21;12.00;99.90
25918;DHT22;13899;51.174;4.456;2022-11-04T06:57:47;12.00;99.90
25918;DHT22;13899;51.174;4.456;2022-11-04T07:00:13;12.00;99.90
25918;DHT22;13899;51.174;4.456;2022-11-04T07:02:38;12.00;99.90
25918;DHT22;13899;51.174;4.456;2022-11-04T07:05:04;11.90;99.90
25918;DHT22;13899;51.174;4.456;2022-11-04T07:07:31;11.70;99.90
25918;DHT22;13899;51.174;4.456;2022-11-04T07:09:57;11.40;99.90
25918;DHT22;13899;51.174;4.456;2022-11-04T07:12:23;11.60;99.90
25918;DHT22;13899;51.174;4.456;2022-11-04T07:14:52;11.80;99.90
25918;DHT22;13899;51.174;4.456;2022-11-04T07:17:20;11.70;99.90
25918;DHT22;13899;51.174;4.456;2022-11-04T07:19:45;11.60;99.90
25918;DHT22;13899;51.174;4.456;2022-11-04T07:22:11;11.60;99.90
25918;DHT22;13899;51.174;4.456;2022-11-04T07:24:36;11.50;99.90
25918;DHT22;13899;51.174;4.456;2022-11-04T07:27:02;11.70;99.90
25918;DHT22;13899;51.174;4.456;2022-11-04T07:29:27;11.50;99.90
25918;DHT22;13899;51.174;4.456;2022-11-04T07:31:53;11.60;99.90
25918;DHT22;13899;51.174;4.456;2022-11-04T07:34:19;11.80;99.90
25918;DHT22;13899;51.174;4.456;2022-11-04T07:36:44;12.00;99.90
25918;DHT22;13899;51.174;4.456;2022-11-04T07:39:10;12.20;99.90
25918;DHT22;13899;51.174;4.456;2022-11-04T07:41:36;12.30;99.90
25918;DHT22;13899;51.174;4.456;2022-11-04T07:44:01;12.40;99.90
25918;DHT22;13899;51.174;4.456;2022-11-04T07:46:32;12.40;99.90
25918;DHT22;13899;51.174;4.456;2022-11-04T07:48:58;12.50;99.90
25918;DHT22;13899;51.174;4.456;2022-11-04T07:51:25;12.30;99.90
25918;DHT22;13899;51.174;4.456;2022-11-04T07:53:51;12.30;99.90
25918;DHT22;13899;51.174;4.456;2022-11-04T07:56:17;12.40;99.90
25918;DHT22;13899;51.174;4.456;2022-11-04T07:58:44;12.60;99.90
25918;DHT22;13899;51.174;4.456;2022-11-04T08:01:13;12.60;99.90
25918;DHT22;13899;51.174;4.456;2022-11-04T08:03:40;12.20;99.90
25918;DHT22;13899;51.174;4.456;2022-11-04T08:06:08;12.30;99.90
25918;DHT22;13899;51.174;4.456;2022-11-04T08:08:34;12.60;99.90
25918;DHT22;13899;51.174;4.456;2022-11-04T08:11:06;12.50;99.90
25918;DHT22;13899;51.174;4.456;2022-11-04T08:13:34;12.10;99.90
25918;DHT22;13899;51.174;4.456;2022-11-04T08:16:05;11.80;99.90
25918;DHT22;13899;51.174;4.456;2022-11-04T08:18:32;12.00;99.90
25918;DHT22;13899;51.174;4.456;2022-11-04T08:20:59;12.30;99.90
25918;DHT22;13899;51.174;4.456;2022-11-04T08:23:25;12.40;99.90
25918;DHT22;13899;51.174;4.456;2022-11-04T08:25:50;12.50;99.90
25918;DHT22;13899;51.174;4.456;2022-11-04T08:28:16;12.80;99.90
25918;DHT22;13899;51.174;4.456;2022-11-04T08:31:03;12.50;99.90
25918;DHT22;13899;51.174;4.456;2022-11-04T08:33:30;11.70;99.90
25918;DHT22;13899;51.174;4.456;2022-11-04T08:38:54;11.50;99.90
25918;DHT22;13899;51.174;4.456;2022-11-04T08:41:24;11.90;99.90
25918;DHT22;13899;51.174;4.456;2022-11-04T08:43:50;11.90;99.90
25918;DHT22;13899;51.174;4.456;2022-11-04T08:46:16;11.90;99.90
25918;DHT22;13899;51.174;4.456;2022-11-04T08:48:42;12.10;99.90
25918;DHT22;13899;51.174;4.456;2022-11-04T08:51:17;12.30;99.90
25918;DHT22;13899;51.174;4.456;2022-11-04T08:53:43;12.80;99.90
25918;DHT22;13899;51.174;4.456;2022-11-04T08:58:35;13.30;99.90
25918;DHT22;13899;51.174;4.456;2022-11-04T09:01:05;13.50;99.90
25918;DHT22;13899;51.174;4.456;2022-11-04T09:03:31;13.90;99.90
25918;DHT22;13899;51.174;4.456;2022-11-04T09:05:59;14.50;99.90
25918;DHT22;13899;51.174;4.456;2022-11-04T09:08:25;15.20;99.90
25918;DHT22;13899;51.174;4.456;2022-11-04T09:10:51;14.90;99.90
25918;DHT22;13899;51.174;4.456;2022-11-04T09:13:17;15.20;99.90
25918;DHT22;13899;51.174;4.456;2022-11-04T09:15:42;15.20;99.90
25918;DHT22;13899;51.174;4.456;2022-11-04T09:18:08;15.20;99.90
25918;DHT22;13899;51.174;4.456;2022-11-04T09:20:35;15.30;99.90
25918;DHT22;13899;51.174;4.456;2022-11-04T09:23:03;15.00;99.90
25918;DHT22;13899;51.174;4.456;2022-11-04T09:25:29;14.60;99.90
25918;DHT22;13899;51.174;4.456;2022-11-04T09:27:54;14.50;99.90
25918;DHT22;13899;51.174;4.456;2022-11-04T09:30:20;14.70;99.90
25918;DHT22;13899;51.174;4.456;2022-11-04T09:32:45;13.90;99.90
25918;DHT22;13899;51.174;4.456;2022-11-04T09:35:11;13.30;99.90
25918;DHT22;13899;51.174;4.456;2022-11-04T09:37:37;13.50;99.90
25918;DHT22;13899;51.174;4.456;2022-11-04T09:40:03;13.60;99.90
25918;DHT22;13899;51.174;4.456;2022-11-04T09:42:37;13.50;99.90
25918;DHT22;13899;51.174;4.456;2022-11-04T09:45:14;13.60;99.90
25918;DHT22;13899;51.174;4.456;2022-11-04T09:47:42;13.70;99.90
25918;DHT22;13899;51.174;4.456;2022-11-04T09:50:16;13.80;99.90
25918;DHT22;13899;51.174;4.456;2022-11-04T09:52:48;13.80;99.90
25918;DHT22;13899;51.174;4.456;2022-11-04T09:57:54;13.30;99.90
25918;DHT22;13899;51.174;4.456;2022-11-04T10:00:22;13.60;99.90
25918;DHT22;13899;51.174;4.456;2022-11-04T10:02:54;13.80;99.90
25918;DHT22;13899;51.174;4.456;2022-11-04T10:13:32;13.40;99.90
25918;DHT22;13899;51.174;4.456;2022-11-04T10:16:44;13.70;99.90
25918;DHT22;13899;51.174;4.456;2022-11-04T10:22:15;14.00;99.90
25918;DHT22;13899;51.174;4.456;2022-11-04T10:25:00;14.00;99.90
25918;DHT22;13899;51.174;4.456;2022-11-04T10:27:30;13.20;99.90
25918;DHT22;13899;51.174;4.456;2022-11-04T10:30:12;13.30;99.90
25918;DHT22;13899;51.174;4.456;2022-11-04T10:35:27;13.30;99.90
25918;DHT22;13899;51.174;4.456;2022-11-04T10:37:57;13.70;99.90
25918;DHT22;13899;51.174;4.456;2022-11-04T10:40:30;13.20;99.90
25918;DHT22;13899;51.174;4.456;2022-11-04T10:43:02;13.10;99.90
25918;DHT22;13899;51.174;4.456;2022-11-04T10:46:08;13.00;99.90
25918;DHT22;13899;51.174;4.456;2022-11-04T10:48:49;13.30;99.90
25918;DHT22;13899;51.174;4.456;2022-11-04T10:51:16;13.60;99.90
25918;DHT22;13899;51.174;4.456;2022-11-04T10:53:55;13.90;99.90
25918;DHT22;13899;51.174;4.456;2022-11-04T10:56:39;14.10;99.90
25918;DHT22;13899;51.174;4.456;2022-11-04T11:01:54;14.60;99.90
25918;DHT22;13899;51.174;4.456;2022-11-04T11:06:56;14.80;99.90
25918;DHT22;13899;51.174;4.456;2022-11-04T11:09:31;14.90;99.90
25918;DHT22;13899;51.174;4.456;2022-11-04T11:12:21;14.60;99.90
25918;DHT22;13899;51.174;4.456;2022-11-04T11:14:55;14.60;99.90
25918;DHT22;13899;51.174;4.456;2022-11-04T11:19:54;15.30;99.90
25918;DHT22;13899;51.174;4.456;2022-11-04T11:24:53;15.80;99.90
25918;DHT22;13899;51.174;4.456;2022-11-04T11:27:36;16.30;99.90
25918;DHT22;13899;51.174;4.456;2022-11-04T11:30:03;17.20;99.90
25918;DHT22;13899;51.174;4.456;2022-11-04T11:33:00;17.80;99.90
25918;DHT22;13899;51.174;4.456;2022-11-04T11:35:37;18.60;99.90
25918;DHT22;13899;51.174;4.456;2022-11-04T11:38:20;19.00;99.90
25918;DHT22;13899;51.174;4.456;2022-11-04T11:40:47;19.50;99.90
25918;DHT22;13899;51.174;4.456;2022-11-04T11:43:26;19.50;99.90
25918;DHT22;13899;51.174;4.456;2022-11-04T11:45:55;19.80;99.90
25918;DHT22;13899;51.174;4.456;2022-11-04T11:48:33;19.40;99.90
25918;DHT22;13899;51.174;4.456;2022-11-04T11:51:03;18.80;99.90
25918;DHT22;13899;51.174;4.456;2022-11-04T11:53:29;18.30;99.90
25918;DHT22;13899;51.174;4.456;2022-11-04T11:56:20;17.90;99.90
25918;DHT22;13899;51.174;4.456;2022-11-04T11:59:05;17.50;99.90
25918;DHT22;13899;51.174;4.456;2022-11-04T12:04:42;18.90;99.90
25918;DHT22;13899;51.174;4.456;2022-11-04T12:15:34;23.00;99.90
25918;DHT22;13899;51.174;4.456;2022-11-04T12:20:50;24.00;99.90
25918;DHT22;13899;51.174;4.456;2022-11-04T12:23:52;24.40;99.90
25918;DHT22;13899;51.174;4.456;2022-11-04T12:45:54;21.10;99.90
25918;DHT22;13899;51.174;4.456;2022-11-04T12:48:48;21.00;99.90
25918;DHT22;13899;51.174;4.456;2022-11-04T12:56:39;20.60;99.90
25918;DHT22;13899;51.174;4.456;2022-11-04T13:01:47;18.80;99.90
25918;DHT22;13899;51.174;4.456;2022-11-04T13:04:24;18.30;99.90
25918;DHT22;13899;51.174;4.456;2022-11-04T13:06:57;18.20;99.90
25918;DHT22;13899;51.174;4.456;2022-11-04T13:17:14;17.00;99.90
25918;DHT22;13899;51.174;4.456;2022-11-04T13:19:46;16.70;99.90
25918;DHT22;13899;51.174;4.456;2022-11-04T13:22:21;16.60;99.90
25918;DHT22;13899;51.174;4.456;2022-11-04T13:27:30;16.20;99.90
25918;DHT22;13899;51.174;4.456;2022-11-04T13:30:32;16.00;99.90
25918;DHT22;13899;51.174;4.456;2022-11-04T13:36:32;17.10;99.90
25918;DHT22;13899;51.174;4.456;2022-11-04T13:39:21;17.80;99.90
25918;DHT22;13899;51.174;4.456;2022-11-04T13:42:08;17.50;99.90
25918;DHT22;13899;51.174;4.456;2022-11-04T13:44:48;17.00;99.90
25918;DHT22;13899;51.174;4.456;2022-11-04T13:47:25;16.70;99.90
25918;DHT22;13899;51.174;4.456;2022-11-04T13:49:54;16.80;99.90
25918;DHT22;13899;51.174;4.456;2022-11-04T13:52:25;16.60;99.90
25918;DHT22;13899;51.174;4.456;2022-11-04T13:55:00;16.50;99.90
25918;DHT22;13899;51.174;4.456;2022-11-04T13:57:31;16.10;99.90
25918;DHT22;13899;51.174;4.456;2022-11-04T14:08:14;16.10;99.90
25918;DHT22;13899;51.174;4.456;2022-11-04T14:18:44;16.90;99.90
25918;DHT22;13899;51.174;4.456;2022-11-04T14:21:16;16.90;99.90
25918;DHT22;13899;51.174;4.456;2022-11-04T14:23:45;16.80;99.90
25918;DHT22;13899;51.174;4.456;2022-11-04T14:26:17;16.30;99.90
25918;DHT22;13899;51.174;4.456;2022-11-04T14:31:39;16.00;99.90
25918;DHT22;13899;51.174;4.456;2022-11-04T14:34:07;15.90;99.90
25918;DHT22;13899;51.174;4.456;2022-11-04T14:36:47;15.90;99.90
25918;DHT22;13899;51.174;4.456;2022-11-04T14:47:27;14.60;99.90
25918;DHT22;13899;51.174;4.456;2022-11-04T14:50:04;14.40;99.90
25918;DHT22;13899;51.174;4.456;2022-11-04T15:00:31;13.80;99.90
25918;DHT22;13899;51.174;4.456;2022-11-04T15:03:11;13.70;99.90
25918;DHT22;13899;51.174;4.456;2022-11-04T15:05:39;13.90;99.90
25918;DHT22;13899;51.174;4.456;2022-11-04T15:08:34;13.80;99.90
25918;DHT22;13899;51.174;4.456;2022-11-04T15:11:10;13.80;99.90
25918;DHT22;13899;51.174;4.456;2022-11-04T15:16:23;13.80;99.90
25918;DHT22;13899;51.174;4.456;2022-11-04T15:18:51;13.80;99.90
25918;DHT22;13899;51.174;4.456;2022-11-04T15:21:18;14.00;99.90
25918;DHT22;13899;51.174;4.456;2022-11-04T15:23:49;13.70;99.90
25918;DHT22;13899;51.174;4.456;2022-11-04T15:26:25;13.60;99.90
25918;DHT22;13899;51.174;4.456;2022-11-04T15:28:51;13.60;99.90
25918;DHT22;13899;51.174;4.456;2022-11-04T15:31:21;13.70;99.90
25918;DHT22;13899;51.174;4.456;2022-11-04T15:33:49;13.70;99.90
25918;DHT22;13899;51.174;4.456;2022-11-04T15:36:19;13.80;99.90
25918;DHT22;13899;51.174;4.456;2022-11-04T15:38:50;13.70;99.90
25918;DHT22;13899;51.174;4.456;2022-11-04T15:41:19;13.60;99.90
25918;DHT22;13899;51.174;4.456;2022-11-04T15:44:12;13.50;99.90
25918;DHT22;13899;51.174;4.456;2022-11-04T15:46:39;13.40;99.90
25918;DHT22;13899;51.174;4.456;2022-11-04T15:49:06;13.30;99.90
25918;DHT22;13899;51.174;4.456;2022-11-04T15:51:37;13.50;99.90
25918;DHT22;13899;51.174;4.456;2022-11-04T15:54:25;13.70;99.90
25918;DHT22;13899;51.174;4.456;2022-11-04T15:56:55;14.00;99.90
25918;DHT22;13899;51.174;4.456;2022-11-04T15:59:31;14.00;99.90
25918;DHT22;13899;51.174;4.456;2022-11-04T16:01:58;14.10;99.90
25918;DHT22;13899;51.174;4.456;2022-11-04T16:04:26;14.10;99.90
25918;DHT22;13899;51.174;4.456;2022-11-04T16:07:22;14.00;99.90
25918;DHT22;13899;51.174;4.456;2022-11-04T16:09:53;13.80;99.90
25918;DHT22;13899;51.174;4.456;2022-11-04T16:12:26;13.70;99.90
25918;DHT22;13899;51.174;4.456;2022-11-04T16:14:54;13.80;99.90
25918;DHT22;13899;51.174;4.456;2022-11-04T16:17:21;13.90;99.90
25918;DHT22;13899;51.174;4.456;2022-11-04T16:19:55;13.70;99.90
25918;DHT22;13899;51.174;4.456;2022-11-04T16:22:33;13.80;99.90
25918;DHT22;13899;51.174;4.456;2022-11-04T16:25:02;13.80;99.90
25918;DHT22;13899;51.174;4.456;2022-11-04T16:27:32;13.60;99.90
25918;DHT22;13899;51.174;4.456;2022-11-04T16:32:30;13.60;99.90
25918;DHT22;13899;51.174;4.456;2022-11-04T16:35:24;13.70;99.90
25918;DHT22;13899;51.174;4.456;2022-11-04T16:37:50;13.70;99.90
25918;DHT22;13899;51.174;4.456;2022-11-04T16:40:18;13.80;99.90
25918;DHT22;13899;51.174;4.456;2022-11-04T16:42:45;13.70;99.90
25918;DHT22;13899;51.174;4.456;2022-11-04T16:45:25;13.60;99.90
25918;DHT22;13899;51.174;4.456;2022-11-04T16:47:51;13.60;99.90
25918;DHT22;13899;51.174;4.456;2022-11-04T16:50:18;13.30;99.90
25918;DHT22;13899;51.174;4.456;2022-11-04T16:52:44;13.30;99.90
25918;DHT22;13899;51.174;4.456;2022-11-04T16:55:11;13.30;99.90
25918;DHT22;13899;51.174;4.456;2022-11-04T16:57:37;13.30;99.90
25918;DHT22;13899;51.174;4.456;2022-11-04T17:00:04;13.30;99.90
25918;DHT22;13899;51.174;4.456;2022-11-04T17:02:34;13.30;99.90
25918;DHT22;13899;51.174;4.456;2022-11-04T17:05:05;13.40;99.90
25918;DHT22;13899;51.174;4.456;2022-11-04T17:07:32;13.40;99.90
25918;DHT22;13899;51.174;4.456;2022-11-04T17:09:58;13.40;99.90
25918;DHT22;13899;51.174;4.456;2022-11-04T17:12:23;13.30;99.90
25918;DHT22;13899;51.174;4.456;2022-11-04T17:14:49;13.10;99.90
25918;DHT22;13899;51.174;4.456;2022-11-04T17:17:15;13.00;99.90
25918;DHT22;13899;51.174;4.456;2022-11-04T17:19:41;13.00;99.90
25918;DHT22;13899;51.174;4.456;2022-11-04T17:22:07;13.00;99.90
25918;DHT22;13899;51.174;4.456;2022-11-04T17:24:33;12.90;99.90
25918;DHT22;13899;51.174;4.456;2022-11-04T17:26:59;12.80;99.90
25918;DHT22;13899;51.174;4.456;2022-11-04T17:29:24;12.60;99.90
25918;DHT22;13899;51.174;4.456;2022-11-04T17:31:50;12.50;99.90
25918;DHT22;13899;51.174;4.456;2022-11-04T17:34:17;12.40;99.90
25918;DHT22;13899;51.174;4.456;2022-11-04T17:36:43;12.40;99.90
25918;DHT22;13899;51.174;4.456;2022-11-04T17:39:09;12.40;99.90
25918;DHT22;13899;51.174;4.456;2022-11-04T17:41:34;12.40;99.90
25918;DHT22;13899;51.174;4.456;2022-11-04T17:44:18;12.30;99.90
25918;DHT22;13899;51.174;4.456;2022-11-04T17:46:45;12.30;99.90
25918;DHT22;13899;51.174;4.456;2022-11-04T17:49:21;12.00;99.90
25918;DHT22;13899;51.174;4.456;2022-11-04T17:51:49;11.90;99.90
25918;DHT22;13899;51.174;4.456;2022-11-04T17:54:33;11.70;99.90
25918;DHT22;13899;51.174;4.456;2022-11-04T17:57:19;11.80;99.90
25918;DHT22;13899;51.174;4.456;2022-11-04T17:59:45;11.80;99.90
25918;DHT22;13899;51.174;4.456;2022-11-04T18:02:11;11.60;99.90
25918;DHT22;13899;51.174;4.456;2022-11-04T18:04:36;11.60;99.90
25918;DHT22;13899;51.174;4.456;2022-11-04T18:07:02;11.30;99.90
25918;DHT22;13899;51.174;4.456;2022-11-04T18:09:48;11.00;99.90
25918;DHT22;13899;51.174;4.456;2022-11-04T18:12:13;11.00;99.90
25918;DHT22;13899;51.174;4.456;2022-11-04T18:15:20;10.90;99.90
25918;DHT22;13899;51.174;4.456;2022-11-04T18:17:49;11.00;99.90
25918;DHT22;13899;51.174;4.456;2022-11-04T18:20:17;11.10;99.90
25918;DHT22;13899;51.174;4.456;2022-11-04T18:22:50;10.90;99.90
25918;DHT22;13899;51.174;4.456;2022-11-04T18:25:39;11.10;99.90
25918;DHT22;13899;51.174;4.456;2022-11-04T18:28:08;11.20;99.90
25918;DHT22;13899;51.174;4.456;2022-11-04T18:30:39;11.00;99.90
25918;DHT22;13899;51.174;4.456;2022-11-04T18:33:04;11.10;99.90
25918;DHT22;13899;51.174;4.456;2022-11-04T18:35:30;11.20;99.90
25918;DHT22;13899;51.174;4.456;2022-11-04T18:37:58;11.10;99.90
25918;DHT22;13899;51.174;4.456;2022-11-04T18:40:23;11.10;99.90
25918;DHT22;13899;51.174;4.456;2022-11-04T18:42:50;11.10;99.90